الصفحة الرئيسية
METAR-TAF:

METAR-TAF

مطار :

مطار ماكاران الدولي

لاس فيغاس, نيفادا, الولايات المتحدة

دائرة عرض: 36-04-44N, خط طول: 115-09-19W, ارتفاع: 663 متر

مراقبة الطقس الحالي

تاريخ ووقت الإصدار 20 دقيقة قبل الساعة 20:56UTC
رياح هادئة
درجة الحرارة 10°درجة مئوية
الرطوبة 25%
ضغط 1024 hPa
الرؤية: 16.1 كم
غيوم مفككة على ارتفاع 20000 قدم

METAR: KLAS 232056Z 00000KT 10SM BKN200 10/M09 A3025 RMK AO2 SLP247 T01001089 58015 $

زمن: 13:16 (21:16 UTC)

توقعات

تاريخ ووقت الإصدار 52 دقيقة قبل الساعة 20:24UTC
التوقعات صالحة من23 الساعة 20 UTC إلى 24 الساعة 24 UTC
ريح 6 عقدة من الشرق/الجنوب الشرقي
الرؤية: 10 كم
غيوم متفرقة على ارتفاع 20000 قدم
من 24 الساعة 0400 UTC
ريح 6 عقدة من الجنوب الغربي
الرؤية: 10 كم
غيوم مفككة على ارتفاع 25000 قدم
من 24 الساعة 1500 UTC
ريح 4 عقدةمن اتجاهات متغيرة
الرؤية: 10 كم
غيوم متفرقة على ارتفاع 15000 قدم

TAF: KLAS 232024Z 2320/2424 11006KT P6SM SCT200 FM240400 22006KT P6SM BKN250 FM241500 VRB04KT P6SM SCT150

أرصاد الطقس والتوقعات من أكثر من 4000 مطار (تقارير الطقس للمطار METAR والتنبؤ بالطقس بالمطارTAF).

المحطات المتاحة هي النقط الصفراء والحمراء على الخريطة.

حرك المؤشر فوق النقطة لمعرفة اسم المحطة.

ثم انقر لمعرفة أرصاد وتوقعات الطقس.

لتغيير الخارطة: اضغط على الأزرار الخضراء مع رمز الصليب الأسود للتكبير. على الزر الأخضر مع شرطة للتصغير، أو على الأسهم الخضراء للخرائط المجاورة.


METAR-TAF: